createdAt,value
2017-11-16T00:01:58.851Z,57.90
2017-11-16T00:04:26.350Z,58.00
2017-11-16T00:06:53.881Z,58.00
2017-11-16T00:09:21.831Z,58.00
2017-11-16T00:11:49.398Z,57.80
2017-11-16T00:14:17.358Z,57.60
2017-11-16T00:16:44.892Z,57.40
2017-11-16T00:19:13.325Z,57.20
2017-11-16T00:21:40.828Z,57.20
2017-11-16T00:24:09.106Z,57.30
2017-11-16T00:26:37.730Z,57.60
2017-11-16T00:29:05.247Z,57.50
2017-11-16T00:31:33.529Z,57.80
2017-11-16T00:34:01.046Z,57.80
2017-11-16T00:36:29.538Z,57.60
2017-11-16T00:38:57.902Z,57.60
2017-11-16T00:41:25.437Z,57.60
2017-11-16T00:43:53.535Z,57.30
2017-11-16T00:46:21.265Z,57.60
2017-11-16T00:48:49.662Z,57.40
2017-11-16T00:51:17.212Z,58.30
2017-11-16T00:53:44.794Z,57.70
2017-11-16T00:56:12.381Z,57.80
2017-11-16T00:58:41.424Z,57.60
2017-11-16T01:01:09.085Z,57.60
2017-11-16T01:03:37.360Z,57.70
2017-11-16T01:06:04.926Z,57.60
2017-11-16T01:08:33.310Z,57.70
2017-11-16T01:11:02.009Z,57.70
2017-11-16T01:13:30.244Z,57.70
2017-11-16T01:15:58.674Z,57.60
2017-11-16T01:18:27.986Z,57.50
2017-11-16T01:20:55.530Z,57.30
2017-11-16T01:23:23.124Z,57.30
2017-11-16T01:25:51.479Z,57.10
2017-11-16T01:28:19.004Z,57.10
2017-11-16T01:30:46.518Z,57.00
2017-11-16T01:33:14.119Z,56.90
2017-11-16T01:35:43.461Z,56.90
2017-11-16T01:38:11.013Z,56.80
2017-11-16T01:40:39.217Z,56.80
2017-11-16T01:43:07.529Z,56.80
2017-11-16T01:45:35.077Z,57.10
2017-11-16T01:48:03.359Z,57.50
2017-11-16T01:50:30.912Z,58.00
2017-11-16T01:52:58.436Z,58.30
2017-11-16T01:55:26.738Z,58.70
2017-11-16T01:57:54.573Z,58.60
2017-11-16T02:00:22.983Z,58.70
2017-11-16T02:02:54.509Z,58.80
2017-11-16T02:05:22.061Z,58.70
2017-11-16T02:07:49.566Z,58.80
2017-11-16T02:10:17.610Z,58.80
2017-11-16T02:12:46.113Z,58.80
2017-11-16T02:15:13.617Z,58.80
2017-11-16T02:17:41.217Z,58.80
2017-11-16T02:20:09.642Z,58.80
2017-11-16T02:22:37.935Z,58.70
2017-11-16T02:25:06.529Z,58.70
2017-11-16T02:27:35.308Z,58.60
2017-11-16T02:30:02.817Z,58.10
2017-11-16T02:32:30.408Z,58.60
2017-11-16T02:34:57.959Z,58.60
2017-11-16T02:37:25.525Z,58.60
2017-11-16T02:39:53.110Z,58.60
2017-11-16T02:42:20.780Z,58.40
2017-11-16T02:44:48.369Z,58.40
2017-11-16T02:47:16.847Z,58.50
2017-11-16T02:49:45.114Z,58.40
2017-11-16T02:52:13.366Z,58.50
2017-11-16T02:54:41.694Z,58.50
2017-11-16T02:57:10.024Z,58.60
2017-11-16T02:59:37.965Z,58.60
2017-11-16T03:02:06.069Z,58.70
2017-11-16T03:04:34.422Z,58.60
2017-11-16T03:07:02.022Z,58.70
2017-11-16T03:09:29.543Z,58.80
2017-11-16T03:11:57.676Z,58.80
2017-11-16T03:14:25.352Z,58.80
2017-11-16T03:16:52.886Z,58.70
2017-11-16T03:19:21.927Z,58.70
2017-11-16T03:21:50.144Z,58.70
2017-11-16T03:24:17.681Z,58.60
2017-11-16T03:26:45.209Z,58.60
2017-11-16T03:29:12.794Z,59.20
2017-11-16T03:31:40.353Z,58.60
2017-11-16T03:34:08.775Z,58.60
2017-11-16T03:36:36.333Z,58.50
2017-11-16T03:39:04.668Z,58.60
2017-11-16T03:41:32.241Z,58.60
2017-11-16T03:43:59.822Z,58.70
2017-11-16T03:46:28.335Z,58.70
2017-11-16T03:48:55.861Z,58.70
2017-11-16T03:51:23.373Z,58.70
2017-11-16T03:53:50.878Z,59.30
2017-11-16T03:56:19.233Z,58.80
2017-11-16T03:58:47.583Z,58.80
2017-11-16T04:01:15.101Z,58.80
2017-11-16T04:03:44.034Z,58.80
2017-11-16T04:06:11.577Z,58.80
2017-11-16T04:08:39.810Z,58.90
2017-11-16T04:11:08.224Z,59.00
2017-11-16T04:13:35.768Z,58.90
2017-11-16T04:16:04.075Z,58.90
2017-11-16T04:18:31.849Z,58.90
2017-11-16T04:21:00.263Z,58.80
2017-11-16T04:23:28.585Z,58.80
2017-11-16T04:25:56.131Z,58.80
2017-11-16T04:28:24.414Z,58.80
2017-11-16T04:30:52.111Z,58.80
2017-11-16T04:33:19.657Z,58.80
2017-11-16T04:35:47.180Z,59.00
2017-11-16T04:38:16.645Z,59.40
2017-11-16T04:40:44.250Z,59.50
2017-11-16T04:43:12.520Z,59.70
2017-11-16T04:45:40.067Z,59.70
2017-11-16T04:48:07.628Z,59.60
2017-11-16T04:50:35.179Z,59.40
2017-11-16T04:53:02.795Z,59.40
2017-11-16T04:55:30.788Z,59.30
2017-11-16T04:57:59.218Z,59.30
2017-11-16T05:00:28.306Z,59.50
2017-11-16T05:02:56.630Z,59.50
2017-11-16T05:05:24.179Z,59.50
2017-11-16T05:07:52.455Z,59.40
2017-11-16T05:10:21.139Z,59.40
2017-11-16T05:12:50.528Z,59.40
2017-11-16T05:15:18.074Z,59.30
2017-11-16T05:17:46.339Z,59.30
2017-11-16T05:20:13.877Z,59.20
2017-11-16T05:22:41.430Z,59.10
2017-11-16T05:25:09.016Z,59.20
2017-11-16T05:27:37.240Z,59.10
2017-11-16T05:30:06.652Z,59.10
2017-11-16T05:32:35.564Z,59.00
2017-11-16T05:35:03.135Z,59.20
2017-11-16T05:37:30.656Z,59.30
2017-11-16T05:39:59.971Z,59.30
2017-11-16T05:42:28.293Z,59.20
2017-11-16T05:44:55.817Z,59.30
2017-11-16T05:47:23.427Z,59.60
2017-11-16T05:49:51.661Z,59.50
2017-11-16T05:52:19.175Z,59.70
2017-11-16T05:54:46.693Z,59.60
2017-11-16T05:57:14.960Z,59.70
2017-11-16T05:59:42.503Z,59.70
2017-11-16T06:02:10.052Z,59.70
2017-11-16T06:04:37.545Z,59.80
2017-11-16T06:07:05.170Z,59.80
2017-11-16T06:09:32.679Z,59.80
2017-11-16T06:12:00.226Z,59.70
2017-11-16T06:14:28.662Z,60.10
2017-11-16T06:16:57.222Z,61.20
2017-11-16T06:19:25.281Z,60.30
2017-11-16T06:21:56.838Z,60.40
2017-11-16T06:24:25.626Z,60.20
2017-11-16T06:26:53.149Z,60.20
2017-11-16T06:29:22.779Z,60.20
2017-11-16T06:31:50.506Z,60.10
2017-11-16T06:34:18.073Z,59.90
2017-11-16T06:36:45.615Z,59.90
2017-11-16T06:39:13.118Z,59.80
2017-11-16T06:41:40.665Z,59.80
2017-11-16T06:44:08.183Z,59.80
2017-11-16T06:46:35.710Z,59.70
2017-11-16T06:49:03.990Z,59.80
2017-11-16T06:51:32.270Z,59.80
2017-11-16T06:53:59.831Z,59.80
2017-11-16T06:56:28.158Z,59.90
2017-11-16T06:58:55.640Z,59.90
2017-11-16T07:01:24.724Z,60.00
2017-11-16T07:03:52.268Z,60.00
2017-11-16T07:06:19.767Z,60.00
2017-11-16T07:08:47.329Z,60.00
2017-11-16T07:11:15.660Z,60.00
2017-11-16T07:13:43.225Z,60.00
2017-11-16T07:16:10.741Z,60.00
2017-11-16T07:18:38.261Z,60.20
2017-11-16T07:21:05.775Z,60.00
2017-11-16T07:23:33.322Z,60.00
2017-11-16T07:26:00.999Z,60.00
2017-11-16T07:28:28.517Z,59.90
2017-11-16T07:30:56.845Z,59.80
2017-11-16T07:33:24.402Z,59.80
2017-11-16T07:35:51.930Z,59.80
2017-11-16T07:38:19.460Z,59.80
2017-11-16T07:40:49.873Z,59.80
2017-11-16T07:43:17.656Z,59.80
2017-11-16T07:45:45.172Z,59.70
2017-11-16T07:48:12.689Z,59.60
2017-11-16T07:50:40.987Z,59.80
2017-11-16T07:53:10.709Z,59.80
2017-11-16T07:55:38.874Z,59.70
2017-11-16T07:58:07.443Z,59.60
2017-11-16T08:00:34.988Z,59.60
2017-11-16T08:03:03.519Z,59.60
2017-11-16T08:05:31.040Z,59.60
2017-11-16T08:08:00.120Z,59.50
2017-11-16T08:10:28.464Z,59.50
2017-11-16T08:12:55.986Z,59.50
2017-11-16T08:15:23.517Z,59.40
2017-11-16T08:17:51.557Z,59.30
2017-11-16T08:20:19.729Z,59.20
2017-11-16T08:22:47.845Z,59.10
2017-11-16T08:25:15.383Z,58.90
2017-11-16T08:27:43.265Z,58.80
2017-11-16T08:30:10.776Z,58.90
2017-11-16T08:32:38.289Z,58.80
2017-11-16T08:35:07.157Z,58.60
2017-11-16T08:37:34.677Z,58.60
2017-11-16T08:40:02.208Z,58.50
2017-11-16T08:42:29.800Z,58.50
2017-11-16T08:44:58.195Z,58.60
2017-11-16T08:47:25.724Z,58.70
2017-11-16T08:49:53.265Z,58.60
2017-11-16T08:52:20.843Z,58.40
2017-11-16T08:54:48.373Z,58.30
2017-11-16T08:57:15.912Z,58.40
2017-11-16T08:59:43.457Z,58.30
2017-11-16T09:02:11.055Z,58.30
2017-11-16T09:04:39.935Z,58.20
2017-11-16T09:07:07.852Z,58.30
2017-11-16T09:09:35.403Z,58.10
2017-11-16T09:12:02.961Z,58.10
2017-11-16T09:14:30.590Z,58.00
2017-11-16T09:16:58.866Z,58.10
2017-11-16T09:19:27.204Z,58.10
2017-11-16T09:21:54.765Z,58.10
2017-11-16T09:24:22.399Z,57.80
2017-11-16T09:26:49.962Z,57.80
2017-11-16T09:29:17.726Z,58.00
2017-11-16T09:31:46.315Z,57.70
2017-11-16T09:34:14.231Z,57.70
2017-11-16T09:42:25.799Z,57.50
2017-11-16T09:44:54.075Z,57.30
2017-11-16T09:47:22.241Z,57.50
2017-11-16T09:49:49.795Z,57.20
2017-11-16T09:52:17.390Z,57.20
2017-11-16T09:54:45.799Z,57.30
2017-11-16T09:57:13.321Z,57.20
2017-11-16T09:59:40.875Z,57.10
2017-11-16T10:02:08.523Z,57.10
2017-11-16T10:04:36.635Z,57.00
2017-11-16T10:07:04.846Z,56.90
2017-11-16T10:09:33.708Z,56.60
2017-11-16T10:12:01.248Z,56.60
2017-11-16T10:14:28.977Z,56.60
2017-11-16T10:16:56.516Z,56.50
2017-11-16T10:19:25.339Z,56.20
2017-11-16T10:21:53.689Z,56.20
2017-11-16T10:24:22.228Z,56.00
2017-11-16T10:26:49.903Z,56.00
2017-11-16T10:29:17.462Z,56.20
2017-11-16T10:31:45.082Z,56.20
2017-11-16T10:34:13.593Z,56.70
2017-11-16T10:36:41.162Z,56.10
2017-11-16T10:39:08.697Z,56.20
2017-11-16T10:41:36.296Z,56.30
2017-11-16T10:44:03.838Z,56.50
2017-11-16T10:46:31.984Z,56.40
2017-11-16T10:48:59.770Z,56.30
2017-11-16T10:51:27.325Z,56.40
2017-11-16T10:53:54.878Z,56.30
2017-11-16T10:56:22.494Z,56.30
2017-11-16T10:58:50.015Z,56.10
2017-11-16T11:01:17.565Z,56.10
2017-11-16T11:03:45.154Z,56.00
2017-11-16T11:06:12.727Z,55.70
2017-11-16T11:08:41.036Z,55.80
2017-11-16T11:11:11.133Z,55.80
2017-11-16T11:13:38.647Z,55.80
2017-11-16T11:16:06.951Z,54.90
2017-11-16T11:18:35.801Z,55.40
2017-11-16T11:21:03.394Z,55.30
2017-11-16T11:23:33.153Z,55.40
2017-11-16T11:26:00.735Z,55.40
2017-11-16T11:28:28.289Z,55.30
2017-11-16T11:33:57.356Z,55.30
2017-11-16T11:36:25.818Z,55.20
2017-11-16T11:38:53.371Z,55.20
2017-11-16T11:41:22.971Z,55.10
2017-11-16T11:43:50.528Z,55.10
2017-11-16T11:46:18.138Z,55.10
2017-11-16T11:48:45.664Z,55.10
2017-11-16T11:51:14.030Z,55.20
2017-11-16T11:53:41.777Z,55.20
2017-11-16T11:56:09.398Z,55.30
2017-11-16T11:58:37.875Z,55.30
2017-11-16T12:01:06.792Z,55.20
2017-11-16T12:03:34.314Z,55.20
2017-11-16T12:06:02.624Z,55.20
2017-11-16T12:08:30.703Z,55.20
2017-11-16T12:10:58.450Z,55.10
2017-11-16T12:13:25.983Z,54.90
2017-11-16T12:15:54.276Z,54.80
2017-11-16T12:18:22.690Z,54.70
2017-11-16T12:20:50.237Z,54.50
2017-11-16T12:23:17.880Z,54.50
2017-11-16T12:25:45.571Z,54.50
2017-11-16T12:28:13.533Z,54.30
2017-11-16T12:30:41.562Z,54.30
2017-11-16T12:33:09.899Z,54.00
2017-11-16T12:35:37.509Z,54.00
2017-11-16T12:38:05.306Z,54.20
2017-11-16T12:40:33.054Z,54.20
2017-11-16T12:43:01.260Z,54.10
2017-11-16T12:45:28.810Z,54.10
2017-11-16T12:47:57.959Z,53.80
2017-11-16T12:50:26.314Z,53.90
2017-11-16T12:52:53.868Z,53.90
2017-11-16T12:55:21.438Z,53.80
2017-11-16T12:57:49.018Z,53.90
2017-11-16T13:00:16.562Z,54.00
2017-11-16T13:02:44.400Z,53.80
2017-11-16T13:05:11.960Z,53.80
2017-11-16T13:07:40.277Z,53.80
2017-11-16T13:10:09.483Z,53.80
2017-11-16T13:12:37.985Z,53.70
2017-11-16T13:15:05.589Z,53.70
2017-11-16T13:17:33.139Z,53.70
2017-11-16T13:20:01.161Z,53.70
2017-11-16T13:22:29.459Z,53.20
2017-11-16T13:24:56.961Z,53.20
2017-11-16T13:27:24.742Z,53.20
2017-11-16T13:29:53.165Z,53.40
2017-11-16T13:32:20.731Z,53.40
2017-11-16T13:34:48.756Z,53.50
2017-11-16T13:37:16.766Z,53.40
2017-11-16T13:39:44.300Z,53.40
2017-11-16T13:42:11.970Z,53.50
2017-11-16T13:44:40.236Z,53.70
2017-11-16T13:47:08.482Z,53.70
2017-11-16T13:49:36.115Z,53.70
2017-11-16T13:52:04.585Z,53.70
2017-11-16T13:54:33.002Z,53.60
2017-11-16T13:57:00.669Z,53.50
2017-11-16T13:59:29.547Z,53.70
2017-11-16T14:01:57.055Z,53.80
2017-11-16T14:04:24.606Z,54.00
2017-11-16T14:06:52.890Z,54.00
2017-11-16T14:09:20.596Z,54.00
2017-11-16T14:11:48.128Z,53.90
2017-11-16T14:14:15.692Z,54.10
2017-11-16T14:16:43.206Z,54.30
2017-11-16T14:19:10.756Z,54.40
2017-11-16T14:21:38.329Z,54.50
2017-11-16T14:24:05.852Z,54.70
2017-11-16T14:26:34.230Z,54.80
2017-11-16T14:29:01.955Z,55.00
2017-11-16T14:31:29.544Z,55.00
2017-11-16T14:33:57.717Z,55.00
2017-11-16T14:36:25.285Z,55.00
2017-11-16T14:38:53.560Z,55.10
2017-11-16T14:41:21.220Z,55.20
2017-11-16T14:43:48.813Z,55.10
2017-11-16T14:46:16.374Z,55.20
2017-11-16T14:48:43.959Z,55.40
2017-11-16T14:51:12.297Z,55.50
2017-11-16T14:53:41.286Z,55.50
2017-11-16T14:56:08.858Z,55.60
2017-11-16T14:58:36.629Z,55.60
2017-11-16T15:01:04.214Z,55.70
2017-11-16T15:03:31.926Z,55.70
2017-11-16T15:05:59.454Z,55.80
2017-11-16T15:08:26.975Z,55.90
2017-11-16T15:10:54.571Z,56.00
2017-11-16T15:13:22.263Z,56.10
2017-11-16T15:15:49.853Z,56.20
2017-11-16T15:18:18.439Z,56.20
2017-11-16T15:20:46.591Z,56.30
2017-11-16T15:23:14.717Z,56.20
2017-11-16T15:25:42.751Z,56.40
2017-11-16T15:28:11.488Z,56.50
2017-11-16T15:30:39.016Z,56.50
2017-11-16T15:33:07.667Z,56.60
2017-11-16T15:35:35.182Z,56.80
2017-11-16T15:38:02.736Z,56.90
2017-11-16T15:40:31.177Z,56.70
2017-11-16T15:43:00.717Z,56.70
2017-11-16T15:45:28.994Z,56.50
2017-11-16T15:47:56.532Z,56.50
2017-11-16T15:50:24.735Z,56.50
2017-11-16T15:52:53.031Z,56.50
2017-11-16T15:55:20.621Z,56.40
2017-11-16T15:57:48.131Z,56.40
2017-11-16T16:00:15.896Z,56.40
2017-11-16T16:02:43.419Z,56.40
2017-11-16T16:05:11.001Z,56.30
2017-11-16T16:07:38.586Z,56.20
2017-11-16T16:10:07.578Z,56.10
2017-11-16T16:12:36.083Z,56.00
2017-11-16T16:15:04.613Z,55.90
2017-11-16T16:17:32.214Z,55.80
2017-11-16T16:19:59.762Z,55.80
2017-11-16T16:22:28.079Z,55.50
2017-11-16T16:24:55.636Z,55.50
2017-11-16T16:27:23.419Z,55.50
2017-11-16T16:29:50.944Z,55.40
2017-11-16T16:32:18.498Z,55.30
2017-11-16T16:34:46.103Z,55.10
2017-11-16T16:37:15.401Z,55.10
2017-11-16T16:39:43.542Z,55.00
2017-11-16T16:42:11.128Z,55.00
2017-11-16T16:44:38.681Z,54.80
2017-11-16T16:47:06.242Z,54.70
2017-11-16T16:49:34.532Z,54.70
2017-11-16T16:52:02.588Z,54.70
2017-11-16T16:54:30.231Z,54.70
2017-11-16T16:56:57.793Z,54.70
2017-11-16T16:59:25.332Z,54.50
2017-11-16T17:01:52.902Z,54.60
2017-11-16T17:04:20.617Z,54.70
2017-11-16T17:06:48.137Z,54.70
2017-11-16T17:09:15.659Z,54.90
2017-11-16T17:11:43.217Z,55.00
2017-11-16T17:14:12.519Z,55.10
2017-11-16T17:16:40.822Z,55.20
2017-11-16T17:19:08.370Z,55.20
2017-11-16T17:21:37.755Z,55.20
2017-11-16T17:24:06.144Z,55.20
2017-11-16T17:26:35.859Z,55.50
2017-11-16T17:29:04.338Z,55.50
2017-11-16T17:31:31.872Z,55.40
2017-11-16T17:34:00.230Z,55.50
2017-11-16T17:36:27.790Z,55.60
2017-11-16T17:38:55.345Z,55.70
2017-11-16T17:41:23.843Z,55.80
2017-11-16T17:43:52.389Z,55.80
2017-11-16T17:46:20.531Z,55.80
2017-11-16T17:48:48.451Z,55.80
2017-11-16T17:51:16.012Z,55.80
2017-11-16T17:53:43.572Z,55.90
2017-11-16T17:56:11.175Z,56.10
2017-11-16T17:58:39.521Z,56.00
2017-11-16T18:01:07.936Z,56.00
2017-11-16T18:03:35.528Z,56.00
2017-11-16T18:06:03.092Z,56.10
2017-11-16T18:08:30.664Z,56.20
2017-11-16T18:10:58.178Z,56.20
2017-11-16T18:13:25.746Z,56.20
2017-11-16T18:15:53.253Z,56.20
2017-11-16T18:18:20.870Z,56.30
2017-11-16T18:20:48.455Z,56.30
2017-11-16T18:23:16.017Z,56.40
2017-11-16T18:25:43.584Z,56.50
2017-11-16T18:28:11.139Z,56.50
2017-11-16T18:30:38.726Z,56.60
2017-11-16T18:33:06.351Z,56.50
2017-11-16T18:35:35.558Z,56.60
2017-11-16T18:38:03.118Z,56.60
2017-11-16T18:40:30.638Z,56.70
2017-11-16T18:43:00.381Z,56.70
2017-11-16T18:45:27.946Z,56.70
2017-11-16T18:47:55.512Z,56.70
2017-11-16T18:50:25.300Z,56.60
2017-11-16T18:52:52.853Z,56.70
2017-11-16T18:55:20.389Z,56.70
2017-11-16T18:57:49.302Z,56.70
2017-11-16T19:00:16.837Z,56.70
2017-11-16T19:02:47.712Z,56.70
2017-11-16T19:05:15.241Z,56.80
2017-11-16T19:07:43.778Z,56.70
2017-11-16T19:10:11.345Z,56.80
2017-11-16T19:12:38.942Z,56.70
2017-11-16T19:15:07.629Z,56.70
2017-11-16T19:17:35.947Z,56.80
2017-11-16T19:20:03.689Z,57.40
2017-11-16T19:22:31.276Z,56.80
2017-11-16T19:24:58.831Z,56.80
2017-11-16T19:27:26.627Z,56.80
2017-11-16T19:29:54.187Z,56.80
2017-11-16T19:32:21.836Z,57.00
2017-11-16T19:34:50.052Z,56.90
2017-11-16T19:37:18.380Z,56.90
2017-11-16T19:39:45.908Z,56.90
2017-11-16T19:42:13.525Z,56.90
2017-11-16T19:44:42.529Z,57.00
2017-11-16T19:47:11.477Z,57.00
2017-11-16T19:49:39.253Z,57.00
2017-11-16T19:52:06.914Z,57.00
2017-11-16T19:54:35.468Z,57.00
2017-11-16T19:57:03.149Z,57.10
2017-11-16T19:59:31.744Z,57.00
2017-11-16T20:01:59.610Z,57.00
2017-11-16T20:04:27.284Z,57.10
2017-11-16T20:06:54.909Z,57.10
2017-11-16T20:09:22.403Z,57.10
2017-11-16T20:11:49.982Z,57.20
2017-11-16T20:14:17.726Z,57.30
2017-11-16T20:16:45.357Z,57.30
2017-11-16T20:19:12.930Z,57.40
2017-11-16T20:21:40.759Z,58.00
2017-11-16T20:24:08.372Z,57.70
2017-11-16T20:26:35.942Z,57.70
2017-11-16T20:29:03.492Z,57.70
2017-11-16T20:31:31.099Z,57.80
2017-11-16T20:33:59.595Z,57.70
2017-11-16T20:36:27.268Z,57.70
2017-11-16T20:42:17.357Z,57.70
2017-11-16T20:44:51.418Z,57.70
2017-11-16T20:47:24.898Z,57.70
2017-11-16T20:49:59.069Z,57.60
2017-11-16T20:52:30.706Z,57.60
2017-11-16T20:54:58.712Z,57.80
2017-11-16T20:57:27.172Z,57.90
2017-11-16T20:59:55.644Z,58.00
2017-11-16T21:02:23.158Z,57.90
2017-11-16T21:04:51.499Z,58.00
2017-11-16T21:07:19.848Z,57.80
2017-11-16T21:09:47.456Z,57.80
2017-11-16T21:12:15.833Z,57.70
2017-11-16T21:14:43.731Z,57.70
2017-11-16T21:17:11.490Z,57.70
2017-11-16T21:19:39.253Z,57.70
2017-11-16T21:22:07.848Z,57.70
2017-11-16T21:24:35.474Z,58.00
2017-11-16T21:27:03.945Z,58.20
2017-11-16T21:29:34.115Z,58.70
2017-11-16T21:32:03.980Z,58.90
2017-11-16T21:34:32.735Z,58.90
2017-11-16T21:37:00.391Z,59.50
2017-11-16T21:39:27.918Z,58.30
2017-11-16T21:41:55.444Z,59.00
2017-11-16T21:44:23.026Z,58.90
2017-11-16T21:46:52.273Z,59.20
2017-11-16T21:49:19.893Z,59.20
2017-11-16T21:51:49.642Z,59.10
2017-11-16T21:54:18.061Z,59.10
2017-11-16T21:56:45.567Z,59.30
2017-11-16T21:59:13.127Z,59.00
2017-11-16T22:01:40.791Z,59.30
2017-11-16T22:04:08.337Z,59.40
2017-11-16T22:06:37.081Z,59.50
2017-11-16T22:09:06.001Z,59.50
2017-11-16T22:11:34.353Z,59.70
2017-11-16T22:14:02.031Z,59.70
2017-11-16T22:16:29.876Z,59.90
2017-11-16T22:18:57.394Z,60.10
2017-11-16T22:21:25.239Z,60.10
2017-11-16T22:23:52.800Z,60.70
2017-11-16T22:26:20.571Z,60.60
2017-11-16T22:28:49.299Z,60.70
2017-11-16T22:31:16.808Z,60.90
2017-11-16T22:33:45.048Z,61.00
2017-11-16T22:36:12.756Z,61.70
2017-11-16T22:38:40.422Z,61.80
2017-11-16T22:41:07.994Z,61.90
2017-11-16T22:43:36.421Z,62.40
2017-11-16T22:46:04.729Z,62.40
2017-11-16T22:48:33.295Z,62.60
2017-11-16T22:51:01.601Z,63.30
2017-11-16T22:53:29.291Z,63.10
2017-11-16T22:55:56.836Z,63.00
2017-11-16T22:58:24.569Z,63.00
2017-11-16T23:00:53.026Z,63.20
2017-11-16T23:03:23.327Z,63.90
2017-11-16T23:05:52.364Z,63.10
2017-11-16T23:08:26.033Z,63.10
2017-11-16T23:10:53.774Z,63.00
2017-11-16T23:13:22.185Z,63.30
2017-11-16T23:15:50.640Z,63.40
2017-11-16T23:18:18.301Z,63.70
2017-11-16T23:20:46.766Z,63.30
2017-11-16T23:23:14.791Z,63.10
2017-11-16T23:25:42.296Z,62.70
2017-11-16T23:28:10.686Z,62.50
2017-11-16T23:30:38.787Z,62.40
2017-11-16T23:33:07.752Z,63.00
2017-11-16T23:35:35.242Z,62.30
2017-11-16T23:38:05.260Z,62.50
2017-11-16T23:40:33.591Z,62.50
2017-11-16T23:43:01.808Z,62.60
2017-11-16T23:45:29.656Z,62.30
2017-11-16T23:47:58.017Z,62.50
2017-11-16T23:50:25.824Z,62.80
2017-11-16T23:52:53.334Z,63.20
2017-11-16T23:55:21.381Z,63.40
2017-11-16T23:57:48.946Z,63.50
